Time;durP1;ratioP1;P1;durP2;ratioP2;P2;SDS_P1;SDS_P2;PMS_P1;PMS_P2;Temp;Humidity;BMP_temperature;BMP_pressure;BME280_temperature;BME280_humidity;BME280_pressure;Samples;Min_cycle;Max_cycle;Signal;HPM_P1;HPM_P2
2022/01/05 00:01:46;;;;;;;21.95;10.43;;;;;;;;;;5099769;28;20043;-70
2022/01/05 00:04:51;;;;;;;23.55;10.05;;;;;;;;;;5112474;28;20046;-70
2022/01/05 00:07:55;;;;;;;21.23;9.52;;;;;;;;;;5112165;28;20038;-70
2022/01/05 00:11:02;;;;;;;20.10;9.95;;;;;;;;;;5112033;28;20182;-71
2022/01/05 00:14:07;;;;;;;23.33;10.95;;;;;;;;;;5112307;28;20643;-71
2022/01/05 00:17:11;;;;;;;20.60;8.40;;;;;;;;;;5112091;28;20043;-70
2022/01/05 00:20:19;;;;;;;17.95;9.43;;;;;;;;;;5112074;28;20051;-70
2022/01/05 00:23:23;;;;;;;19.73;9.68;;;;;;;;;;5112068;28;20394;-70
2022/01/05 00:26:27;;;;;;;16.90;8.43;;;;;;;;;;5112168;28;20058;-70
2022/01/05 00:29:32;;;;;;;18.33;10.05;;;;;;;;;;5111770;28;20497;-71
2022/01/05 00:32:36;;;;;;;17.85;7.75;;;;;;;;;;5111737;28;20402;-71
2022/01/05 00:35:40;;;;;;;16.17;8.25;;;;;;;;;;5112079;28;20043;-71
2022/01/05 00:38:45;;;;;;;16.83;8.52;;;;;;;;;;5111479;28;20402;-70
2022/01/05 00:41:49;;;;;;;14.07;8.52;;;;;;;;;;5111773;28;20453;-70
2022/01/05 00:44:53;;;;;;;17.90;8.93;;;;;;;;;;5111523;28;20042;-70
2022/01/05 00:47:57;;;;;;;16.73;7.95;;;;;;;;;;5111559;28;20042;-70
2022/01/05 00:51:03;;;;;;;20.02;8.93;;;;;;;;;;5111464;28;20047;-71
2022/01/05 00:54:07;;;;;;;16.55;8.35;;;;;;;;;;5111446;28;20046;-71
2022/01/05 00:57:12;;;;;;;15.52;8.25;;;;;;;;;;5111748;28;20043;-71
2022/01/05 01:00:16;;;;;;;19.65;8.23;;;;;;;;;;5111716;28;20383;-71
2022/01/05 01:03:20;;;;;;;15.45;7.65;;;;;;;;;;5113722;28;20058;-71
2022/01/05 01:06:25;;;;;;;13.52;8.20;;;;;;;;;;5118269;28;20035;-71
2022/01/05 01:09:29;;;;;;;12.32;7.25;;;;;;;;;;5118195;28;20050;-71
2022/01/05 01:12:34;;;;;;;18.45;8.63;;;;;;;;;;5118504;28;20047;-71
2022/01/05 01:15:39;;;;;;;14.45;8.07;;;;;;;;;;5118187;28;20043;-71
2022/01/05 01:18:43;;;;;;;22.33;9.23;;;;;;;;;;5118420;28;20390;-70
2022/01/05 01:21:47;;;;;;;16.92;9.07;;;;;;;;;;5118045;28;20051;-70
2022/01/05 01:24:52;;;;;;;22.42;10.13;;;;;;;;;;5117965;28;20058;-70
2022/01/05 01:27:56;;;;;;;16.17;9.23;;;;;;;;;;5118108;28;20042;-71
2022/01/05 01:31:00;;;;;;;21.70;9.18;;;;;;;;;;5117853;28;20062;-71
2022/01/05 01:34:05;;;;;;;19.48;10.02;;;;;;;;;;5117799;28;20038;-71
2022/01/05 01:37:09;;;;;;;16.05;10.10;;;;;;;;;;5118062;28;20043;-70
2022/01/05 01:40:14;;;;;;;21.60;9.77;;;;;;;;;;5118182;28;20054;-69
2022/01/05 01:43:18;;;;;;;22.02;9.63;;;;;;;;;;5117790;28;20050;-71
2022/01/05 01:46:22;;;;;;;17.45;9.13;;;;;;;;;;5117963;28;20410;-70
2022/01/05 01:49:26;;;;;;;30.40;11.57;;;;;;;;;;5117651;28;20042;-71
2022/01/05 01:52:31;;;;;;;21.23;10.32;;;;;;;;;;5118100;28;20055;-70
2022/01/05 01:55:35;;;;;;;18.45;9.77;;;;;;;;;;5117887;28;20050;-71
2022/01/05 01:58:40;;;;;;;24.92;10.00;;;;;;;;;;5116998;28;20054;-71
2022/01/05 02:01:44;;;;;;;17.77;9.98;;;;;;;;;;5118036;28;20424;-71
2022/01/05 02:04:48;;;;;;;17.58;9.35;;;;;;;;;;5117787;28;20050;-71
2022/01/05 02:07:52;;;;;;;21.40;9.85;;;;;;;;;;5117678;28;20047;-71
2022/01/05 02:10:57;;;;;;;16.38;9.88;;;;;;;;;;5117511;28;20521;-71
2022/01/05 02:14:01;;;;;;;18.65;10.27;;;;;;;;;;5117474;28;20043;-71
2022/01/05 02:17:15;;;;;;;22.90;9.75;;;;;;;;;;5114350;28;20042;-71
2022/01/05 02:20:20;;;;;;;15.63;9.68;;;;;;;;;;5114539;28;20058;-71
2022/01/05 02:23:25;;;;;;;20.75;8.75;;;;;;;;;;5114278;28;20043;-71
2022/01/05 02:26:29;;;;;;;21.60;9.30;;;;;;;;;;5114138;28;20042;-71
2022/01/05 02:29:34;;;;;;;17.70;8.77;;;;;;;;;;5113990;28;20042;-70
2022/01/05 02:32:38;;;;;;;15.68;7.50;;;;;;;;;;5114171;28;20055;-71
2022/01/05 02:35:43;;;;;;;18.70;8.13;;;;;;;;;;5114251;28;20039;-71
2022/01/05 02:38:48;;;;;;;16.73;8.10;;;;;;;;;;5114265;28;20050;-71
2022/01/05 02:41:52;;;;;;;20.27;9.20;;;;;;;;;;5113999;28;20390;-71
2022/01/05 02:44:58;;;;;;;15.55;8.05;;;;;;;;;;5113984;28;20043;-71
2022/01/05 02:48:05;;;;;;;14.95;7.35;;;;;;;;;;5113946;28;20038;-71
2022/01/05 02:51:10;;;;;;;21.88;8.52;;;;;;;;;;5113754;28;20071;-71
2022/01/05 02:54:14;;;;;;;20.27;8.45;;;;;;;;;;5113533;28;20403;-71
2022/01/05 02:57:19;;;;;;;20.05;9.38;;;;;;;;;;5114035;28;20058;-71
2022/01/05 03:00:23;;;;;;;19.77;8.85;;;;;;;;;;5113941;28;20391;-71
2022/01/05 03:03:27;;;;;;;15.82;7.47;;;;;;;;;;5113604;28;20382;-71
2022/01/05 03:06:32;;;;;;;14.55;7.90;;;;;;;;;;5113717;28;20035;-71
2022/01/05 03:09:39;;;;;;;23.40;7.95;;;;;;;;;;5113115;28;20492;-71
2022/01/05 03:12:45;;;;;;;14.82;8.32;;;;;;;;;;5113485;28;20042;-71
2022/01/05 03:15:49;;;;;;;15.48;8.45;;;;;;;;;;5113420;28;20374;-71
2022/01/05 03:18:53;;;;;;;15.48;8.93;;;;;;;;;;5114858;28;20047;-71
2022/01/05 03:21:57;;;;;;;20.38;9.48;;;;;;;;;;5113300;28;20512;-71
2022/01/05 03:25:02;;;;;;;15.02;8.10;;;;;;;;;;5113221;28;20100;-71
2022/01/05 03:28:07;;;;;;;24.52;8.70;;;;;;;;;;5112713;28;20054;-71
2022/01/05 03:31:11;;;;;;;16.70;8.00;;;;;;;;;;5100092;28;20059;-71
2022/01/05 03:34:19;;;;;;;18.60;8.77;;;;;;;;;;5112784;28;20043;-71
2022/01/05 03:37:23;;;;;;;15.90;8.68;;;;;;;;;;5113110;28;20039;-70
2022/01/05 03:40:28;;;;;;;19.90;9.52;;;;;;;;;;5112794;28;20501;-70
2022/01/05 03:43:32;;;;;;;17.27;9.27;;;;;;;;;;5112772;28;20046;-70
2022/01/05 03:46:36;;;;;;;21.98;9.73;;;;;;;;;;5112900;28;20046;-70
2022/01/05 03:49:40;;;;;;;13.75;8.55;;;;;;;;;;5112967;28;20046;-70
2022/01/05 03:52:45;;;;;;;20.08;9.35;;;;;;;;;;5112827;28;20046;-70
2022/01/05 03:55:49;;;;;;;18.15;9.27;;;;;;;;;;5112799;28;20046;-70
2022/01/05 03:58:54;;;;;;;16.15;9.32;;;;;;;;;;5112539;28;20046;-71
2022/01/05 04:01:58;;;;;;;18.45;9.48;;;;;;;;;;5112848;28;20043;-70
2022/01/05 04:05:02;;;;;;;22.90;8.73;;;;;;;;;;5099786;28;20385;-70
2022/01/05 04:08:06;;;;;;;19.23;9.55;;;;;;;;;;5112509;28;20043;-71
2022/01/05 04:11:11;;;;;;;18.15;8.85;;;;;;;;;;5112331;28;20051;-71
2022/01/05 04:14:15;;;;;;;21.38;9.98;;;;;;;;;;5099422;28;20042;-71
2022/01/05 04:17:21;;;;;;;23.17;11.07;;;;;;;;;;5112005;28;20043;-71
2022/01/05 04:20:25;;;;;;;17.15;9.52;;;;;;;;;;5099746;28;20035;-71
2022/01/05 04:23:29;;;;;;;16.33;9.60;;;;;;;;;;5112110;28;20043;-71
2022/01/05 04:26:34;;;;;;;15.90;9.55;;;;;;;;;;5099641;28;20390;-71
2022/01/05 04:29:39;;;;;;;19.95;10.15;;;;;;;;;;5099669;28;20114;-69
2022/01/05 04:32:43;;;;;;;16.55;10.23;;;;;;;;;;5111626;28;20047;-70
2022/01/05 04:35:47;;;;;;;22.58;11.18;;;;;;;;;;5111713;28;20043;-70
2022/01/05 04:38:52;;;;;;;19.00;11.52;;;;;;;;;;5098233;28;20047;-70
2022/01/05 04:41:56;;;;;;;25.88;11.60;;;;;;;;;;5099545;28;20051;-70
2022/01/05 04:45:00;;;;;;;24.55;12.02;;;;;;;;;;5111697;28;20046;-70
2022/01/05 04:48:05;;;;;;;25.73;12.38;;;;;;;;;;5098993;28;20196;-69
2022/01/05 04:51:09;;;;;;;30.98;12.88;;;;;;;;;;5111471;28;20051;-71
2022/01/05 04:54:13;;;;;;;25.30;12.55;;;;;;;;;;5111724;28;20060;-70
2022/01/05 04:57:18;;;;;;;21.45;11.77;;;;;;;;;;5111359;28;20050;-71
2022/01/05 05:00:22;;;;;;;20.30;11.40;;;;;;;;;;5111434;28;20111;-71
2022/01/05 05:03:26;;;;;;;20.98;12.27;;;;;;;;;;5111348;28;20047;-70
2022/01/05 05:06:31;;;;;;;28.25;12.18;;;;;;;;;;5099160;28;20402;-71
2022/01/05 05:09:35;;;;;;;24.33;12.48;;;;;;;;;;5111155;28;20043;-70
2022/01/05 05:12:40;;;;;;;27.27;12.00;;;;;;;;;;5111564;28;20058;-71
2022/01/05 05:15:44;;;;;;;20.50;12.32;;;;;;;;;;5098963;28;20050;-71
2022/01/05 05:18:48;;;;;;;21.13;12.77;;;;;;;;;;5111457;28;20421;-71
2022/01/05 05:21:53;;;;;;;24.83;13.55;;;;;;;;;;5111364;28;20513;-71
2022/01/05 05:24:58;;;;;;;23.67;12.82;;;;;;;;;;5111345;28;20046;-71
2022/01/05 05:28:02;;;;;;;25.02;10.68;;;;;;;;;;5111452;28;20509;-71
2022/01/05 05:31:06;;;;;;;25.73;10.82;;;;;;;;;;5111021;28;20050;-70
2022/01/05 05:34:10;;;;;;;25.10;9.20;;;;;;;;;;5111275;28;20378;-70
2022/01/05 05:37:16;;;;;;;20.73;10.20;;;;;;;;;;5111026;28;20160;-70
2022/01/05 05:40:21;;;;;;;18.60;8.85;;;;;;;;;;5111047;28;20106;-70
2022/01/05 05:43:26;;;;;;;20.58;8.68;;;;;;;;;;5098734;28;20110;-70
2022/01/05 05:46:30;;;;;;;21.40;9.07;;;;;;;;;;5111144;28;20046;-71
2022/01/05 05:49:34;;;;;;;16.80;8.63;;;;;;;;;;5112010;28;20510;-71
2022/01/05 05:52:38;;;;;;;24.60;8.80;;;;;;;;;;5102535;28;20050;-71
2022/01/05 05:55:43;;;;;;;18.25;8.27;;;;;;;;;;5102238;28;20039;-71
2022/01/05 05:58:47;;;;;;;13.90;8.48;;;;;;;;;;5114878;28;20390;-70
2022/01/05 06:01:52;;;;;;;33.10;9.05;;;;;;;;;;5114944;28;20047;-71
2022/01/05 06:04:56;;;;;;;16.50;8.98;;;;;;;;;;5114787;28;20043;-71
2022/01/05 06:08:01;;;;;;;22.95;10.63;;;;;;;;;;5114328;28;20043;-71
2022/01/05 06:11:05;;;;;;;20.63;9.65;;;;;;;;;;5114299;28;20046;-71
2022/01/05 06:14:12;;;;;;;19.67;8.77;;;;;;;;;;5114434;28;20039;-71
2022/01/05 06:17:17;;;;;;;32.00;11.00;;;;;;;;;;5114395;28;20422;-71
2022/01/05 06:20:22;;;;;;;23.35;8.95;;;;;;;;;;5114522;28;20058;-71
2022/01/05 06:23:27;;;;;;;16.23;8.23;;;;;;;;;;5114407;28;20042;-69
2022/01/05 06:26:31;;;;;;;24.55;9.05;;;;;;;;;;5101877;28;20043;-69
2022/01/05 06:29:40;;;;;;;20.75;9.52;;;;;;;;;;5114026;28;20043;-70
2022/01/05 06:32:45;;;;;;;24.70;9.75;;;;;;;;;;5078522;28;20051;-70
2022/01/05 06:35:49;;;;;;;24.85;13.65;;;;;;;;;;5114365;28;20042;-69
2022/01/05 06:38:54;;;;;;;33.85;14.93;;;;;;;;;;5114090;28;20058;-69
2022/01/05 06:41:58;;;;;;;33.08;16.60;;;;;;;;;;5114178;28;20041;-69
2022/01/05 06:45:03;;;;;;;32.85;14.80;;;;;;;;;;5114210;28;20051;-69
2022/01/05 06:48:08;;;;;;;27.50;13.45;;;;;;;;;;5114043;28;20190;-69
2022/01/05 06:51:15;;;;;;;27.25;14.02;;;;;;;;;;5101181;28;20051;-70
2022/01/05 06:54:19;;;;;;;26.77;11.93;;;;;;;;;;5113829;28;20060;-70
2022/01/05 06:57:24;;;;;;;25.70;12.50;;;;;;;;;;5113568;28;20055;-69
2022/01/05 07:00:31;;;;;;;28.88;11.15;;;;;;;;;;5100837;28;20055;-70
2022/01/05 07:03:35;;;;;;;26.95;12.88;;;;;;;;;;5113448;28;20058;-69
2022/01/05 07:06:39;;;;;;;27.45;12.60;;;;;;;;;;5101062;28;20513;-69
2022/01/05 07:09:47;;;;;;;44.70;13.18;;;;;;;;;;5113267;28;20043;-68
2022/01/05 07:12:52;;;;;;;25.10;11.70;;;;;;;;;;5113445;28;20523;-69
2022/01/05 07:15:56;;;;;;;26.55;11.18;;;;;;;;;;5101022;28;20046;-69
2022/01/05 07:19:01;;;;;;;27.83;11.80;;;;;;;;;;5113344;28;20047;-69
2022/01/05 07:22:05;;;;;;;23.20;11.90;;;;;;;;;;5113074;28;20047;-70
2022/01/05 07:25:10;;;;;;;32.03;13.57;;;;;;;;;;5112961;28;20536;-67
2022/01/05 07:28:14;;;;;;;24.13;10.55;;;;;;;;;;5112981;28;20058;-67
2022/01/05 07:31:19;;;;;;;25.67;10.52;;;;;;;;;;5113066;28;20055;-70
2022/01/05 07:34:23;;;;;;;21.67;9.70;;;;;;;;;;5100212;28;20047;-69
2022/01/05 07:37:27;;;;;;;26.65;10.13;;;;;;;;;;5100194;28;20043;-68
2022/01/05 07:40:31;;;;;;;23.08;11.15;;;;;;;;;;5112468;28;20043;-69
2022/01/05 07:43:36;;;;;;;23.33;13.60;;;;;;;;;;5112584;28;20398;-69
2022/01/05 07:46:40;;;;;;;26.67;13.80;;;;;;;;;;5099977;28;20141;-70
2022/01/05 07:49:45;;;;;;;29.20;13.98;;;;;;;;;;5112542;28;20501;-68
2022/01/05 07:52:49;;;;;;;35.38;17.73;;;;;;;;;;5112677;28;20059;-68
2022/01/05 07:55:53;;;;;;;23.85;11.80;;;;;;;;;;5112545;28;20038;-68
2022/01/05 07:58:58;;;;;;;34.25;12.38;;;;;;;;;;5112343;28;20043;-69
2022/01/05 08:02:02;;;;;;;30.30;12.20;;;;;;;;;;5100015;28;20054;-69
2022/01/05 08:05:07;;;;;;;27.25;12.63;;;;;;;;;;5099787;28;20050;-69
2022/01/05 08:08:11;;;;;;;30.70;12.88;;;;;;;;;;5112147;28;20522;-70
2022/01/05 08:11:16;;;;;;;25.88;14.88;;;;;;;;;;5112027;28;20399;-69
2022/01/05 08:14:21;;;;;;;25.98;13.30;;;;;;;;;;5111965;28;20035;-66
2022/01/05 08:17:26;;;;;;;23.98;10.52;;;;;;;;;;5111655;28;20047;-72
2022/01/05 08:20:30;;;;;;;24.73;10.18;;;;;;;;;;5099579;28;20047;-71
2022/01/05 08:23:35;;;;;;;24.80;10.68;;;;;;;;;;5110974;28;20046;-72
2022/01/05 08:26:42;;;;;;;28.30;10.05;;;;;;;;;;5110881;28;20054;-71
2022/01/05 08:29:47;;;;;;;21.67;9.68;;;;;;;;;;5111092;28;20050;-72
2022/01/05 08:32:52;;;;;;;21.88;10.77;;;;;;;;;;5111456;28;20046;-71
2022/01/05 08:35:57;;;;;;;18.02;8.93;;;;;;;;;;5099138;28;20391;-72
2022/01/05 08:39:02;;;;;;;17.65;8.50;;;;;;;;;;5111468;28;20091;-72
2022/01/05 08:42:06;;;;;;;21.55;8.07;;;;;;;;;;5098623;28;20031;-73
2022/01/05 08:45:11;;;;;;;14.60;7.00;;;;;;;;;;5111535;28;20050;-72
2022/01/05 08:48:16;;;;;;;16.98;7.85;;;;;;;;;;5111652;28;20192;-73
2022/01/05 08:51:21;;;;;;;19.23;7.13;;;;;;;;;;5110403;28;20413;-71
2022/01/05 08:54:26;;;;;;;11.30;6.32;;;;;;;;;;5087287;28;20042;-72
2022/01/05 08:57:30;;;;;;;15.90;7.32;;;;;;;;;;5112083;28;20080;-73
2022/01/05 09:00:36;;;;;;;17.60;8.38;;;;;;;;;;5111475;28;20502;-72
2022/01/05 09:03:40;;;;;;;16.42;7.07;;;;;;;;;;5111515;28;20059;-72
2022/01/05 09:06:45;;;;;;;15.93;7.47;;;;;;;;;;5111660;28;20051;-73
2022/01/05 09:09:49;;;;;;;16.88;8.18;;;;;;;;;;5111542;28;20507;-71
2022/01/05 09:12:53;;;;;;;17.48;7.70;;;;;;;;;;5111351;28;20394;-72
2022/01/05 09:15:58;;;;;;;23.38;9.38;;;;;;;;;;5111502;28;20046;-72
2022/01/05 09:19:03;;;;;;;18.00;9.85;;;;;;;;;;5111210;28;20493;-72
2022/01/05 09:22:08;;;;;;;24.15;10.35;;;;;;;;;;5110975;28;20054;-71
2022/01/05 09:25:14;;;;;;;24.90;9.90;;;;;;;;;;5113460;28;20043;-72
2022/01/05 09:28:19;;;;;;;14.60;8.68;;;;;;;;;;5115245;28;20050;-72
2022/01/05 09:31:22;;;;;;;16.23;7.43;;;;;;;;;;5115302;28;20062;-72
2022/01/05 09:34:27;;;;;;;21.27;8.05;;;;;;;;;;5115303;28;20043;-71
2022/01/05 09:37:35;;;;;;;19.70;6.43;;;;;;;;;;5115092;28;20402;-71
2022/01/05 09:44:05;;;;;;;11.63;6.78;;;;;;;;;;5114793;28;20387;-70
2022/01/05 09:47:29;;;;;;;15.75;6.63;;;;;;;;;;5115081;28;20034;-71
2022/01/05 09:50:34;;;;;;;13.80;5.72;;;;;;;;;;5102175;28;20034;-73
2022/01/05 09:53:38;;;;;;;22.77;8.27;;;;;;;;;;5101689;28;20042;-72
2022/01/05 09:56:43;;;;;;;15.40;7.13;;;;;;;;;;5114535;28;20055;-72
2022/01/05 09:59:47;;;;;;;14.05;7.05;;;;;;;;;;5102385;28;20042;-70
2022/01/05 10:02:52;;;;;;;13.25;6.13;;;;;;;;;;5114851;28;20047;-70
2022/01/05 10:06:00;;;;;;;11.63;5.53;;;;;;;;;;5114701;28;20046;-71
2022/01/05 10:09:05;;;;;;;13.38;5.85;;;;;;;;;;5114641;28;20518;-72
2022/01/05 10:12:10;;;;;;;9.52;5.25;;;;;;;;;;5114146;28;20070;-71
2022/01/05 10:15:16;;;;;;;13.82;5.50;;;;;;;;;;5101861;28;20035;-70
2022/01/05 10:18:22;;;;;;;9.38;5.50;;;;;;;;;;5114419;28;20387;-71
2022/01/05 10:21:34;;;;;;;12.57;6.10;;;;;;;;;;5101586;28;20039;-72
2022/01/05 10:24:41;;;;;;;10.18;4.90;;;;;;;;;;5114000;28;20050;-72
2022/01/05 10:27:59;;;;;;;15.70;5.68;;;;;;;;;;5090033;28;20043;-72
2022/01/05 10:31:08;;;;;;;15.82;6.68;;;;;;;;;;5113970;28;20502;-70
2022/01/05 10:34:15;;;;;;;19.98;6.43;;;;;;;;;;5113418;28;20050;-70
2022/01/05 10:37:24;;;;;;;15.48;5.93;;;;;;;;;;5112855;28;20046;-69
2022/01/05 10:40:29;;;;;;;20.27;5.90;;;;;;;;;;5113771;28;20075;-70
2022/01/05 10:43:33;;;;;;;12.00;5.90;;;;;;;;;;5113563;28;20608;-69
2022/01/05 10:46:43;;;;;;;13.77;5.22;;;;;;;;;;5114013;28;20050;-70
2022/01/05 10:49:49;;;;;;;11.95;5.57;;;;;;;;;;5113808;28;20039;-70
2022/01/05 10:52:54;;;;;;;16.33;5.18;;;;;;;;;;5113182;28;20050;-69
2022/01/05 10:55:59;;;;;;;19.73;6.10;;;;;;;;;;5089422;28;20047;-70
2022/01/05 10:59:03;;;;;;;11.45;4.85;;;;;;;;;;5113577;28;20043;-70
2022/01/05 11:02:23;;;;;;;13.85;5.22;;;;;;;;;;5113550;28;20359;-71
2022/01/05 11:05:27;;;;;;;18.73;5.78;;;;;;;;;;5113676;28;20395;-71
2022/01/05 11:08:48;;;;;;;16.52;6.25;;;;;;;;;;5112950;28;20051;-71
2022/01/05 11:11:52;;;;;;;13.82;5.70;;;;;;;;;;5113262;28;20059;-71
2022/01/05 11:15:16;;;;;;;16.55;6.70;;;;;;;;;;5113220;28;20042;-69
2022/01/05 11:18:22;;;;;;;12.95;5.80;;;;;;;;;;5112807;28;20047;-70
2022/01/05 11:21:26;;;;;;;14.38;6.00;;;;;;;;;;5100283;28;20073;-70
2022/01/05 11:24:34;;;;;;;19.50;6.05;;;;;;;;;;5112976;28;20046;-69
2022/01/05 11:27:38;;;;;;;14.13;6.28;;;;;;;;;;5113363;28;20407;-70
2022/01/05 11:30:44;;;;;;;10.98;5.45;;;;;;;;;;5112710;28;20046;-69
2022/01/05 11:33:48;;;;;;;12.98;6.18;;;;;;;;;;5100177;28;20058;-70
2022/01/05 11:36:52;;;;;;;9.23;5.10;;;;;;;;;;5112812;28;20044;-70
2022/01/05 11:39:57;;;;;;;18.35;6.10;;;;;;;;;;5099625;28;20498;-70
2022/01/05 11:43:03;;;;;;;11.48;6.13;;;;;;;;;;5112725;28;20042;-71
2022/01/05 11:46:15;;;;;;;11.90;5.85;;;;;;;;;;5112657;28;20035;-71
2022/01/05 11:49:27;;;;;;;13.38;5.93;;;;;;;;;;5112358;28;20046;-70
2022/01/05 11:52:30;;;;;;;;;;;;;;;;;;5099903;28;20528;-69
2022/01/05 11:55:56;;;;;;;12.85;5.82;;;;;;;;;;5112721;28;20401;-68
2022/01/05 11:59:02;;;;;;;17.85;7.25;;;;;;;;;;5112516;28;20038;-68
2022/01/05 12:02:08;;;;;;;24.17;6.55;;;;;;;;;;5099355;28;20042;-69
2022/01/05 12:05:12;;;;;;;18.55;5.55;;;;;;;;;;5112282;28;20043;-69
2022/01/05 12:08:35;;;;;;;14.13;4.03;;;;;;;;;;5111697;28;20066;-69
2022/01/05 12:11:42;;;;;;;16.55;4.47;;;;;;;;;;5111676;28;20127;-69
2022/01/05 12:14:47;;;;;;;7.60;4.00;;;;;;;;;;5111502;28;20043;-69
2022/01/05 12:18:01;;;;;;;18.85;4.75;;;;;;;;;;5088036;28;20044;-68
2022/01/05 12:21:05;;;;;;;17.05;3.90;;;;;;;;;;5112324;28;20059;-70
2022/01/05 12:24:09;;;;;;;10.85;4.28;;;;;;;;;;5112054;28;20489;-69
2022/01/05 12:27:18;;;;;;;13.85;4.57;;;;;;;;;;5099350;28;20046;-69
2022/01/05 12:30:22;;;;;;;21.02;5.93;;;;;;;;;;5110938;28;20039;-69
2022/01/05 12:33:26;;;;;;;19.85;4.95;;;;;;;;;;5109927;28;20055;-70
2022/01/05 12:36:34;;;;;;;12.57;3.92;;;;;;;;;;5099046;28;20059;-70
2022/01/05 12:39:59;;;;;;;6.85;3.50;;;;;;;;;;5111023;28;20121;-70
2022/01/05 12:43:06;;;;;;;18.38;4.35;;;;;;;;;;5111780;28;20039;-70
2022/01/05 12:46:11;;;;;;;6.57;2.78;;;;;;;;;;5099208;28;20050;-69
2022/01/05 12:49:22;;;;;;;11.50;3.72;;;;;;;;;;5111742;28;20470;-68
2022/01/05 12:52:37;;;;;;;14.13;3.55;;;;;;;;;;5098737;28;20046;-69
2022/01/05 12:55:46;;;;;;;12.85;3.35;;;;;;;;;;5111939;28;20043;-69
2022/01/05 12:58:51;;;;;;;18.10;3.72;;;;;;;;;;5110943;28;20049;-68
2022/01/05 13:01:58;;;;;;;8.85;3.17;;;;;;;;;;5111367;28;20050;-69
2022/01/05 13:05:06;;;;;;;10.25;3.22;;;;;;;;;;5111935;28;20035;-69
2022/01/05 13:08:11;;;;;;;7.80;2.90;;;;;;;;;;5111706;28;20051;-70
2022/01/05 13:11:32;;;;;;;12.98;2.85;;;;;;;;;;5111532;28;20035;-69
2022/01/05 13:14:37;;;;;;;13.60;3.65;;;;;;;;;;5111709;28;20090;-68
2022/01/05 13:17:42;;;;;;;10.98;3.63;;;;;;;;;;5111503;28;20055;-68
2022/01/05 13:20:56;;;;;;;15.65;4.57;;;;;;;;;;5111467;28;20047;-68
2022/01/05 13:24:00;;;;;;;22.42;4.90;;;;;;;;;;5111391;28;20581;-70
2022/01/05 13:27:06;;;;;;;10.25;4.55;;;;;;;;;;5111038;28;20047;-70
2022/01/05 13:30:18;;;;;;;22.42;4.97;;;;;;;;;;5087158;28;20046;-69
2022/01/05 13:33:22;;;;;;;10.45;4.35;;;;;;;;;;5111177;28;20059;-70
2022/01/05 13:36:26;;;;;;;12.43;3.83;;;;;;;;;;5110696;28;20046;-70
2022/01/05 13:39:41;;;;;;;19.58;4.80;;;;;;;;;;5111054;28;20134;-68
2022/01/05 13:42:48;;;;;;;14.05;4.28;;;;;;;;;;5098610;28;20048;-68
2022/01/05 13:45:53;;;;;;;47.22;6.20;;;;;;;;;;5110941;28;20047;-69
2022/01/05 13:49:12;;;;;;;27.63;4.30;;;;;;;;;;5098285;28;20042;-69
2022/01/05 13:52:17;;;;;;;18.83;3.65;;;;;;;;;;5110676;28;20130;-69
2022/01/05 13:55:22;;;;;;;22.02;4.45;;;;;;;;;;5110833;28;20054;-69
2022/01/05 13:58:29;;;;;;;17.90;3.90;;;;;;;;;;5098662;28;20051;-69
2022/01/05 14:01:33;;;;;;;16.10;3.80;;;;;;;;;;5110811;28;20647;-69
2022/01/05 14:04:51;;;;;;;8.55;3.30;;;;;;;;;;5110652;28;20043;-69
2022/01/05 14:08:03;;;;;;;19.63;3.85;;;;;;;;;;5111150;28;20479;-69
2022/01/05 14:11:15;;;;;;;20.42;4.13;;;;;;;;;;5112724;28;20391;-69
2022/01/05 14:14:19;;;;;;;11.73;3.53;;;;;;;;;;5101922;28;20047;-69
2022/01/05 14:17:24;;;;;;;16.55;4.03;;;;;;;;;;5102053;28;20062;-69
2022/01/05 14:20:28;;;;;;;9.70;3.88;;;;;;;;;;5114449;28;20051;-69
2022/01/05 14:23:41;;;;;;;8.20;3.42;;;;;;;;;;5101675;28;20057;-69
2022/01/05 14:26:46;;;;;;;24.98;4.63;;;;;;;;;;5114079;28;20036;-69
2022/01/05 14:30:05;;;;;;;15.70;4.63;;;;;;;;;;5101806;28;20067;-70
2022/01/05 14:33:09;;;;;;;14.57;4.65;;;;;;;;;;5113976;28;20074;-70
2022/01/05 14:36:40;;;;;;;14.82;4.03;;;;;;;;;;5101582;28;20046;-71
2022/01/05 14:39:48;;;;;;;18.13;4.72;;;;;;;;;;5113819;28;20050;-71
2022/01/05 14:42:56;;;;;;;11.68;3.92;;;;;;;;;;5101134;28;20062;-70
2022/01/05 14:46:00;;;;;;;14.02;5.25;;;;;;;;;;5114090;28;20047;-70
2022/01/05 14:49:05;;;;;;;12.52;4.32;;;;;;;;;;5101634;28;20493;-69
2022/01/05 14:52:13;;;;;;;14.95;4.93;;;;;;;;;;5113701;28;20517;-70
2022/01/05 14:55:19;;;;;;;14.27;5.30;;;;;;;;;;5101401;28;20042;-69
2022/01/05 14:58:24;;;;;;;20.60;4.55;;;;;;;;;;5113686;28;20046;-70
2022/01/05 15:01:31;;;;;;;17.13;4.70;;;;;;;;;;5101320;28;20046;-70
2022/01/05 15:04:35;;;;;;;21.80;7.28;;;;;;;;;;5100406;28;20402;-70
2022/01/05 15:07:39;;;;;;;15.35;5.65;;;;;;;;;;5113713;28;20042;-73
2022/01/05 15:10:44;;;;;;;31.30;4.93;;;;;;;;;;5113506;28;20494;-72
2022/01/05 15:13:48;;;;;;;17.02;5.32;;;;;;;;;;5100545;28;20055;-72
2022/01/05 15:16:53;;;;;;;14.07;5.75;;;;;;;;;;5113147;28;20710;-70
2022/01/05 15:19:58;;;;;;;17.92;5.57;;;;;;;;;;5113214;28;20502;-72
2022/01/05 15:23:04;;;;;;;15.65;5.20;;;;;;;;;;5112167;28;20043;-73
2022/01/05 15:26:11;;;;;;;23.10;5.88;;;;;;;;;;5113445;28;20109;-70
2022/01/05 15:29:15;;;;;;;47.15;5.95;;;;;;;;;;5113432;28;20051;-69
2022/01/05 15:32:19;;;;;;;17.50;5.70;;;;;;;;;;5112756;28;20046;-70
2022/01/05 15:35:23;;;;;;;20.63;4.57;;;;;;;;;;5112710;28;20493;-70
2022/01/05 15:38:28;;;;;;;39.20;6.15;;;;;;;;;;5112583;28;20051;-69
2022/01/05 15:41:32;;;;;;;42.63;5.50;;;;;;;;;;5100305;28;20054;-70
2022/01/05 15:44:39;;;;;;;21.70;4.82;;;;;;;;;;5100444;28;20386;-70
2022/01/05 15:47:44;;;;;;;47.80;7.65;;;;;;;;;;5100120;28;20050;-69
2022/01/05 15:50:48;;;;;;;40.70;8.63;;;;;;;;;;5112579;28;20383;-70
2022/01/05 15:53:52;;;;;;;47.88;17.65;;;;;;;;;;5088210;28;20675;-70
2022/01/05 15:57:15;;;;;;;53.28;13.57;;;;;;;;;;5112489;28;20606;-71
2022/01/05 16:03:43;;;;;;;33.45;12.63;;;;;;;;;;5112206;28;20390;-69
2022/01/05 16:06:48;;;;;;;17.30;5.70;;;;;;;;;;5087518;28;20043;-70
2022/01/05 16:09:52;;;;;;;32.35;8.90;;;;;;;;;;5112303;28;20050;-70
2022/01/05 16:12:57;;;;;;;57.25;6.93;;;;;;;;;;5099307;28;20066;-68
2022/01/05 16:16:01;;;;;;;66.60;7.97;;;;;;;;;;5112151;28;20047;-70
2022/01/05 16:19:05;;;;;;;23.95;5.82;;;;;;;;;;5099757;28;20066;-69
2022/01/05 16:22:10;;;;;;;52.53;7.03;;;;;;;;;;5099116;28;20058;-68
2022/01/05 16:25:14;;;;;;;60.03;7.90;;;;;;;;;;5111312;28;20399;-68
2022/01/05 16:28:19;;;;;;;51.45;7.25;;;;;;;;;;5111394;28;20058;-68
2022/01/05 16:31:23;;;;;;;41.03;6.15;;;;;;;;;;5111592;28;20390;-69
2022/01/05 16:34:27;;;;;;;32.22;6.93;;;;;;;;;;5087418;28;20154;-69
2022/01/05 16:37:32;;;;;;;32.13;7.50;;;;;;;;;;5111766;28;20039;-70
2022/01/05 16:40:37;;;;;;;25.98;5.75;;;;;;;;;;5111438;28;20050;-69
2022/01/05 16:43:42;;;;;;;45.13;6.97;;;;;;;;;;5099094;28;20494;-68
2022/01/05 16:46:47;;;;;;;42.10;7.68;;;;;;;;;;5111541;28;20046;-71
2022/01/05 16:49:52;;;;;;;38.60;7.53;;;;;;;;;;5099311;28;20038;-70
2022/01/05 16:52:57;;;;;;;33.58;7.35;;;;;;;;;;5098432;28;20402;-69
2022/01/05 16:56:02;;;;;;;26.45;6.97;;;;;;;;;;5111097;28;20066;-68
2022/01/05 17:02:29;;;;;;;56.25;8.65;;;;;;;;;;5110930;28;20497;-68
2022/01/05 17:05:35;;;;;;;21.90;7.43;;;;;;;;;;5086515;28;20058;-68
2022/01/05 17:08:40;;;;;;;43.33;8.13;;;;;;;;;;5110774;28;20518;-71
2022/01/05 17:11:48;;;;;;;34.90;7.53;;;;;;;;;;5097291;28;20046;-68
2022/01/05 17:14:52;;;;;;;34.03;8.80;;;;;;;;;;5111166;28;20066;-69
2022/01/05 17:17:56;;;;;;;55.20;18.65;;;;;;;;;;5111212;28;20511;-69
2022/01/05 17:21:01;;;;;;;59.30;12.00;;;;;;;;;;5110752;28;20047;-69
2022/01/05 17:24:06;;;;;;;31.00;7.32;;;;;;;;;;5110849;28;20046;-70
2022/01/05 17:27:10;;;;;;;63.10;9.23;;;;;;;;;;5097714;28;20248;-70
2022/01/05 17:30:18;;;;;;;55.22;9.60;;;;;;;;;;5110793;28;20043;-71
2022/01/05 17:33:22;;;;;;;59.28;10.40;;;;;;;;;;5110408;28;20058;-69
2022/01/05 17:36:26;;;;;;;73.35;11.27;;;;;;;;;;5110834;28;20383;-69
2022/01/05 17:39:33;;;;;;;35.15;9.27;;;;;;;;;;5110404;28;20065;-69
2022/01/05 17:42:37;;;;;;;34.03;9.15;;;;;;;;;;5111139;28;20382;-72
2022/01/05 17:45:42;;;;;;;48.67;9.60;;;;;;;;;;5111756;28;20046;-73
2022/01/05 17:48:47;;;;;;;59.47;10.15;;;;;;;;;;5114708;28;20047;-73
2022/01/05 17:51:51;;;;;;;40.38;9.40;;;;;;;;;;5114188;28;20070;-73
2022/01/05 17:54:55;;;;;;;43.03;9.63;;;;;;;;;;5102436;28;20051;-73
2022/01/05 17:58:03;;;;;;;61.67;9.13;;;;;;;;;;5114975;28;20105;-75
2022/01/05 18:01:07;;;;;;;51.00;9.82;;;;;;;;;;5114566;28;20046;-72
2022/01/05 18:04:12;;;;;;;66.38;10.93;;;;;;;;;;5114541;28;20048;-74
2022/01/05 18:07:16;;;;;;;60.22;9.55;;;;;;;;;;5114586;28;20047;-73
2022/01/05 18:10:22;;;;;;;90.78;11.48;;;;;;;;;;5114318;28;20639;-74
2022/01/05 18:13:26;;;;;;;55.72;9.55;;;;;;;;;;5101216;28;20054;-74
2022/01/05 18:16:32;;;;;;;85.43;11.85;;;;;;;;;;5113917;28;20043;-76
2022/01/05 18:19:37;;;;;;;51.58;10.25;;;;;;;;;;5114129;28;20039;-73
2022/01/05 18:22:42;;;;;;;65.10;12.18;;;;;;;;;;5114029;28;20494;-73
2022/01/05 18:25:46;;;;;;;52.22;10.82;;;;;;;;;;5113725;28;20450;-73